sensor_id;sensor_type;location;lat;lon;timestamp;P1;durP1;ratioP1;P2;durP2;ratioP2
4023;SDS011;2026;51.002;13.668;2023-02-01T00:03:49;7.43;;;3.70;;
4023;SDS011;2026;51.002;13.668;2023-02-01T00:08:52;14.00;;;4.03;;
4023;SDS011;2026;51.002;13.668;2023-02-01T00:13:56;7.43;;;3.80;;
4023;SDS011;2026;51.002;13.668;2023-02-01T00:19:01;7.07;;;3.97;;
4023;SDS011;2026;51.002;13.668;2023-02-01T00:24:05;10.20;;;4.20;;
4023;SDS011;2026;51.002;13.668;2023-02-01T00:29:10;18.87;;;6.90;;
4023;SDS011;2026;51.002;13.668;2023-02-01T00:34:16;6.43;;;4.17;;
4023;SDS011;2026;51.002;13.668;2023-02-01T00:39:20;13.27;;;5.60;;
4023;SDS011;2026;51.002;13.668;2023-02-01T00:44:23;9.30;;;4.90;;
4023;SDS011;2026;51.002;13.668;2023-02-01T00:49:27;13.10;;;5.30;;
4023;SDS011;2026;51.002;13.668;2023-02-01T00:54:30;11.10;;;4.20;;
4023;SDS011;2026;51.002;13.668;2023-02-01T00:59:33;7.27;;;3.63;;
4023;SDS011;2026;51.002;13.668;2023-02-01T01:04:38;6.50;;;4.13;;
4023;SDS011;2026;51.002;13.668;2023-02-01T01:09:41;10.07;;;3.67;;
4023;SDS011;2026;51.002;13.668;2023-02-01T01:14:44;8.30;;;3.80;;
4023;SDS011;2026;51.002;13.668;2023-02-01T01:19:49;8.77;;;3.70;;
4023;SDS011;2026;51.002;13.668;2023-02-01T01:24:52;6.93;;;3.40;;
4023;SDS011;2026;51.002;13.668;2023-02-01T01:29:55;8.63;;;3.30;;
4023;SDS011;2026;51.002;13.668;2023-02-01T01:35:00;12.80;;;4.03;;
4023;SDS011;2026;51.002;13.668;2023-02-01T01:40:03;5.97;;;3.03;;
4023;SDS011;2026;51.002;13.668;2023-02-01T01:45:08;10.53;;;3.70;;
4023;SDS011;2026;51.002;13.668;2023-02-01T01:50:25;6.13;;;2.87;;
4023;SDS011;2026;51.002;13.668;2023-02-01T01:55:32;5.80;;;3.00;;
4023;SDS011;2026;51.002;13.668;2023-02-01T02:00:38;9.93;;;3.10;;
4023;SDS011;2026;51.002;13.668;2023-02-01T02:05:42;7.53;;;4.03;;
4023;SDS011;2026;51.002;13.668;2023-02-01T02:10:47;13.83;;;3.23;;
4023;SDS011;2026;51.002;13.668;2023-02-01T02:16:11;8.90;;;3.17;;
4023;SDS011;2026;51.002;13.668;2023-02-01T02:21:30;6.20;;;2.90;;
4023;SDS011;2026;51.002;13.668;2023-02-01T02:27:11;9.70;;;2.80;;
4023;SDS011;2026;51.002;13.668;2023-02-01T02:32:33;4.40;;;2.87;;
4023;SDS011;2026;51.002;13.668;2023-02-01T02:37:52;8.93;;;3.10;;
4023;SDS011;2026;51.002;13.668;2023-02-01T02:43:05;10.03;;;3.43;;
4023;SDS011;2026;51.002;13.668;2023-02-01T02:48:34;9.77;;;3.50;;
4023;SDS011;2026;51.002;13.668;2023-02-01T02:53:46;7.60;;;3.00;;
4023;SDS011;2026;51.002;13.668;2023-02-01T02:59:12;8.17;;;3.03;;
4023;SDS011;2026;51.002;13.668;2023-02-01T03:04:35;7.63;;;3.10;;
4023;SDS011;2026;51.002;13.668;2023-02-01T03:09:40;14.67;;;3.20;;
4023;SDS011;2026;51.002;13.668;2023-02-01T03:14:47;8.97;;;3.30;;
4023;SDS011;2026;51.002;13.668;2023-02-01T03:19:55;8.13;;;2.93;;
4023;SDS011;2026;51.002;13.668;2023-02-01T03:25:04;9.33;;;3.20;;
4023;SDS011;2026;51.002;13.668;2023-02-01T03:30:15;4.50;;;2.60;;
4023;SDS011;2026;51.002;13.668;2023-02-01T03:35:23;5.60;;;2.90;;
4023;SDS011;2026;51.002;13.668;2023-02-01T03:40:33;3.77;;;2.70;;
4023;SDS011;2026;51.002;13.668;2023-02-01T03:45:41;9.77;;;2.90;;
4023;SDS011;2026;51.002;13.668;2023-02-01T03:50:48;10.37;;;3.70;;
4023;SDS011;2026;51.002;13.668;2023-02-01T03:55:56;7.30;;;3.03;;
4023;SDS011;2026;51.002;13.668;2023-02-01T04:01:00;8.27;;;2.80;;
4023;SDS011;2026;51.002;13.668;2023-02-01T04:06:06;8.70;;;2.90;;
4023;SDS011;2026;51.002;13.668;2023-02-01T04:11:11;10.10;;;3.23;;
4023;SDS011;2026;51.002;13.668;2023-02-01T04:16:14;8.73;;;2.97;;
4023;SDS011;2026;51.002;13.668;2023-02-01T04:21:17;13.37;;;3.60;;
4023;SDS011;2026;51.002;13.668;2023-02-01T04:26:21;8.37;;;2.90;;
4023;SDS011;2026;51.002;13.668;2023-02-01T04:31:24;5.37;;;2.57;;
4023;SDS011;2026;51.002;13.668;2023-02-01T04:36:28;9.13;;;3.23;;
4023;SDS011;2026;51.002;13.668;2023-02-01T04:41:32;14.80;;;3.70;;
4023;SDS011;2026;51.002;13.668;2023-02-01T04:46:35;6.80;;;3.10;;
4023;SDS011;2026;51.002;13.668;2023-02-01T04:51:39;11.07;;;3.37;;
4023;SDS011;2026;51.002;13.668;2023-02-01T04:56:43;8.17;;;3.13;;
4023;SDS011;2026;51.002;13.668;2023-02-01T05:01:46;9.17;;;2.40;;
4023;SDS011;2026;51.002;13.668;2023-02-01T05:06:49;14.00;;;2.73;;
4023;SDS011;2026;51.002;13.668;2023-02-01T05:11:53;10.80;;;3.47;;
4023;SDS011;2026;51.002;13.668;2023-02-01T05:17:14;11.83;;;3.07;;
4023;SDS011;2026;51.002;13.668;2023-02-01T05:22:17;10.30;;;3.43;;
4023;SDS011;2026;51.002;13.668;2023-02-01T05:27:21;19.70;;;6.80;;
4023;SDS011;2026;51.002;13.668;2023-02-01T05:32:24;20.40;;;4.70;;
4023;SDS011;2026;51.002;13.668;2023-02-01T05:37:27;6.20;;;3.00;;
4023;SDS011;2026;51.002;13.668;2023-02-01T05:42:32;19.23;;;3.43;;
4023;SDS011;2026;51.002;13.668;2023-02-01T05:47:35;8.30;;;3.30;;
4023;SDS011;2026;51.002;13.668;2023-02-01T05:52:38;7.67;;;3.00;;
4023;SDS011;2026;51.002;13.668;2023-02-01T05:57:42;8.63;;;2.93;;
4023;SDS011;2026;51.002;13.668;2023-02-01T06:02:45;9.13;;;3.17;;
4023;SDS011;2026;51.002;13.668;2023-02-01T06:07:48;10.50;;;3.00;;
4023;SDS011;2026;51.002;13.668;2023-02-01T06:12:53;9.27;;;3.40;;
4023;SDS011;2026;51.002;13.668;2023-02-01T06:17:56;10.73;;;3.00;;
4023;SDS011;2026;51.002;13.668;2023-02-01T06:22:59;7.60;;;2.60;;
4023;SDS011;2026;51.002;13.668;2023-02-01T06:28:03;9.40;;;3.57;;
4023;SDS011;2026;51.002;13.668;2023-02-01T06:33:07;9.33;;;3.73;;
4023;SDS011;2026;51.002;13.668;2023-02-01T06:38:10;14.30;;;3.60;;
4023;SDS011;2026;51.002;13.668;2023-02-01T06:43:15;16.00;;;3.23;;
4023;SDS011;2026;51.002;13.668;2023-02-01T06:48:18;13.80;;;3.43;;
4023;SDS011;2026;51.002;13.668;2023-02-01T06:53:20;7.93;;;3.20;;
4023;SDS011;2026;51.002;13.668;2023-02-01T06:58:27;12.83;;;3.43;;
4023;SDS011;2026;51.002;13.668;2023-02-01T07:03:30;9.03;;;3.03;;
4023;SDS011;2026;51.002;13.668;2023-02-01T07:08:34;13.77;;;3.60;;
4023;SDS011;2026;51.002;13.668;2023-02-01T07:13:40;11.83;;;4.10;;
4023;SDS011;2026;51.002;13.668;2023-02-01T07:18:43;9.93;;;3.40;;
4023;SDS011;2026;51.002;13.668;2023-02-01T07:23:46;11.07;;;3.43;;
4023;SDS011;2026;51.002;13.668;2023-02-01T07:28:51;15.10;;;3.83;;
4023;SDS011;2026;51.002;13.668;2023-02-01T07:33:54;6.20;;;3.40;;
4023;SDS011;2026;51.002;13.668;2023-02-01T07:38:58;10.50;;;3.47;;
4023;SDS011;2026;51.002;13.668;2023-02-01T07:44:03;13.43;;;3.60;;
4023;SDS011;2026;51.002;13.668;2023-02-01T07:49:06;15.33;;;3.90;;
4023;SDS011;2026;51.002;13.668;2023-02-01T07:54:09;6.97;;;3.10;;
4023;SDS011;2026;51.002;13.668;2023-02-01T07:59:13;10.60;;;3.60;;
4023;SDS011;2026;51.002;13.668;2023-02-01T08:04:17;17.73;;;3.40;;
4023;SDS011;2026;51.002;13.668;2023-02-01T08:09:20;10.97;;;3.47;;
4023;SDS011;2026;51.002;13.668;2023-02-01T08:14:24;11.00;;;3.80;;
4023;SDS011;2026;51.002;13.668;2023-02-01T08:19:27;6.67;;;3.40;;
4023;SDS011;2026;51.002;13.668;2023-02-01T08:24:30;15.23;;;3.90;;
4023;SDS011;2026;51.002;13.668;2023-02-01T08:29:34;11.53;;;4.20;;
4023;SDS011;2026;51.002;13.668;2023-02-01T08:34:37;7.40;;;3.60;;
4023;SDS011;2026;51.002;13.668;2023-02-01T08:39:40;10.87;;;3.70;;
4023;SDS011;2026;51.002;13.668;2023-02-01T08:44:49;10.37;;;3.80;;
4023;SDS011;2026;51.002;13.668;2023-02-01T08:49:53;12.00;;;3.60;;
4023;SDS011;2026;51.002;13.668;2023-02-01T08:54:56;9.53;;;2.73;;
4023;SDS011;2026;51.002;13.668;2023-02-01T09:00:00;15.00;;;4.10;;
4023;SDS011;2026;51.002;13.668;2023-02-01T09:05:03;13.23;;;3.27;;
4023;SDS011;2026;51.002;13.668;2023-02-01T09:10:07;13.10;;;3.00;;
4023;SDS011;2026;51.002;13.668;2023-02-01T09:15:12;10.60;;;3.17;;
4023;SDS011;2026;51.002;13.668;2023-02-01T09:20:15;11.93;;;3.20;;
4023;SDS011;2026;51.002;13.668;2023-02-01T09:25:20;7.73;;;3.80;;
4023;SDS011;2026;51.002;13.668;2023-02-01T09:30:24;9.10;;;3.70;;
4023;SDS011;2026;51.002;13.668;2023-02-01T09:35:30;6.47;;;3.50;;
4023;SDS011;2026;51.002;13.668;2023-02-01T09:40:33;13.03;;;3.60;;
4023;SDS011;2026;51.002;13.668;2023-02-01T09:45:40;10.03;;;3.77;;
4023;SDS011;2026;51.002;13.668;2023-02-01T09:50:51;8.20;;;3.80;;
4023;SDS011;2026;51.002;13.668;2023-02-01T09:56:00;9.90;;;3.60;;
4023;SDS011;2026;51.002;13.668;2023-02-01T10:01:12;6.67;;;3.40;;
4023;SDS011;2026;51.002;13.668;2023-02-01T10:06:28;9.57;;;3.63;;
4023;SDS011;2026;51.002;13.668;2023-02-01T10:11:41;10.03;;;3.10;;
4023;SDS011;2026;51.002;13.668;2023-02-01T10:16:58;6.27;;;3.07;;
4023;SDS011;2026;51.002;13.668;2023-02-01T10:22:10;6.60;;;2.83;;
4023;SDS011;2026;51.002;13.668;2023-02-01T10:27:23;7.87;;;3.53;;
4023;SDS011;2026;51.002;13.668;2023-02-01T10:32:38;5.23;;;3.10;;
4023;SDS011;2026;51.002;13.668;2023-02-01T10:37:43;4.10;;;2.90;;
4023;SDS011;2026;51.002;13.668;2023-02-01T10:42:51;6.93;;;3.90;;
4023;SDS011;2026;51.002;13.668;2023-02-01T10:48:02;12.50;;;3.43;;
4023;SDS011;2026;51.002;13.668;2023-02-01T10:53:06;9.50;;;3.67;;
4023;SDS011;2026;51.002;13.668;2023-02-01T10:58:15;9.97;;;3.80;;
4023;SDS011;2026;51.002;13.668;2023-02-01T11:08:42;10.23;;;4.27;;
4023;SDS011;2026;51.002;13.668;2023-02-01T11:13:51;14.33;;;4.83;;
4023;SDS011;2026;51.002;13.668;2023-02-01T11:18:57;11.13;;;3.67;;
4023;SDS011;2026;51.002;13.668;2023-02-01T11:24:01;9.80;;;4.13;;
4023;SDS011;2026;51.002;13.668;2023-02-01T11:29:08;9.13;;;3.80;;
4023;SDS011;2026;51.002;13.668;2023-02-01T11:34:21;8.33;;;3.63;;
4023;SDS011;2026;51.002;13.668;2023-02-01T11:39:28;9.97;;;3.47;;
4023;SDS011;2026;51.002;13.668;2023-02-01T11:44:33;10.23;;;3.60;;
4023;SDS011;2026;51.002;13.668;2023-02-01T11:49:39;10.20;;;3.43;;
4023;SDS011;2026;51.002;13.668;2023-02-01T11:54:47;6.40;;;3.00;;
4023;SDS011;2026;51.002;13.668;2023-02-01T12:00:04;11.03;;;3.60;;
4023;SDS011;2026;51.002;13.668;2023-02-01T12:05:23;8.50;;;3.77;;
4023;SDS011;2026;51.002;13.668;2023-02-01T12:10:32;8.57;;;3.60;;
4023;SDS011;2026;51.002;13.668;2023-02-01T12:15:51;6.13;;;3.23;;
4023;SDS011;2026;51.002;13.668;2023-02-01T12:21:04;7.43;;;3.10;;
4023;SDS011;2026;51.002;13.668;2023-02-01T12:26:19;10.73;;;3.40;;
4023;SDS011;2026;51.002;13.668;2023-02-01T12:37:11;5.30;;;2.97;;
4023;SDS011;2026;51.002;13.668;2023-02-01T12:42:25;5.57;;;2.80;;
4023;SDS011;2026;51.002;13.668;2023-02-01T12:47:32;9.77;;;3.93;;
4023;SDS011;2026;51.002;13.668;2023-02-01T12:52:42;8.10;;;4.87;;
4023;SDS011;2026;51.002;13.668;2023-02-01T12:57:49;7.90;;;4.00;;
4023;SDS011;2026;51.002;13.668;2023-02-01T13:02:55;9.47;;;3.97;;
4023;SDS011;2026;51.002;13.668;2023-02-01T13:08:05;8.10;;;3.33;;
4023;SDS011;2026;51.002;13.668;2023-02-01T13:13:11;7.77;;;3.47;;
4023;SDS011;2026;51.002;13.668;2023-02-01T13:18:20;11.43;;;4.00;;
4023;SDS011;2026;51.002;13.668;2023-02-01T13:23:29;10.67;;;3.53;;
4023;SDS011;2026;51.002;13.668;2023-02-01T13:28:36;9.70;;;3.53;;
4023;SDS011;2026;51.002;13.668;2023-02-01T13:33:52;7.50;;;3.10;;
4023;SDS011;2026;51.002;13.668;2023-02-01T13:39:31;8.20;;;4.07;;
4023;SDS011;2026;51.002;13.668;2023-02-01T13:44:46;8.27;;;3.23;;
4023;SDS011;2026;51.002;13.668;2023-02-01T13:49:53;12.53;;;3.73;;
4023;SDS011;2026;51.002;13.668;2023-02-01T13:55:13;6.20;;;3.00;;
4023;SDS011;2026;51.002;13.668;2023-02-01T14:00:27;6.63;;;2.63;;
4023;SDS011;2026;51.002;13.668;2023-02-01T14:05:54;10.83;;;2.90;;
4023;SDS011;2026;51.002;13.668;2023-02-01T14:11:07;5.83;;;2.77;;
4023;SDS011;2026;51.002;13.668;2023-02-01T14:16:42;6.90;;;2.63;;
4023;SDS011;2026;51.002;13.668;2023-02-01T14:21:46;7.03;;;2.73;;
4023;SDS011;2026;51.002;13.668;2023-02-01T14:26:52;6.73;;;2.83;;
4023;SDS011;2026;51.002;13.668;2023-02-01T14:32:01;7.73;;;2.97;;
4023;SDS011;2026;51.002;13.668;2023-02-01T14:37:08;9.73;;;3.13;;
4023;SDS011;2026;51.002;13.668;2023-02-01T14:42:17;7.80;;;2.90;;
4023;SDS011;2026;51.002;13.668;2023-02-01T14:47:28;6.93;;;3.10;;
4023;SDS011;2026;51.002;13.668;2023-02-01T14:52:36;7.83;;;4.07;;
4023;SDS011;2026;51.002;13.668;2023-02-01T14:57:45;8.70;;;3.90;;
4023;SDS011;2026;51.002;13.668;2023-02-01T15:02:53;6.70;;;4.57;;
4023;SDS011;2026;51.002;13.668;2023-02-01T15:07:58;15.90;;;7.00;;
4023;SDS011;2026;51.002;13.668;2023-02-01T15:13:13;5.70;;;3.37;;
4023;SDS011;2026;51.002;13.668;2023-02-01T15:18:21;8.70;;;3.30;;
4023;SDS011;2026;51.002;13.668;2023-02-01T15:23:24;9.13;;;3.27;;
4023;SDS011;2026;51.002;13.668;2023-02-01T15:28:28;5.73;;;3.10;;
4023;SDS011;2026;51.002;13.668;2023-02-01T15:33:32;10.47;;;3.60;;
4023;SDS011;2026;51.002;13.668;2023-02-01T15:38:38;8.33;;;3.37;;
4023;SDS011;2026;51.002;13.668;2023-02-01T15:43:44;7.40;;;3.37;;
4023;SDS011;2026;51.002;13.668;2023-02-01T15:49:05;10.10;;;3.63;;
4023;SDS011;2026;51.002;13.668;2023-02-01T15:54:23;7.20;;;3.20;;
4023;SDS011;2026;51.002;13.668;2023-02-01T15:59:33;9.30;;;3.50;;
4023;SDS011;2026;51.002;13.668;2023-02-01T16:04:46;6.53;;;3.50;;
4023;SDS011;2026;51.002;13.668;2023-02-01T16:09:53;10.03;;;3.30;;
4023;SDS011;2026;51.002;13.668;2023-02-01T16:14:58;7.20;;;4.50;;
4023;SDS011;2026;51.002;13.668;2023-02-01T16:20:01;9.33;;;4.50;;
4023;SDS011;2026;51.002;13.668;2023-02-01T16:25:05;11.60;;;4.43;;
4023;SDS011;2026;51.002;13.668;2023-02-01T16:30:10;8.70;;;5.00;;
4023;SDS011;2026;51.002;13.668;2023-02-01T16:35:14;8.07;;;3.93;;
4023;SDS011;2026;51.002;13.668;2023-02-01T16:40:25;8.73;;;4.53;;
4023;SDS011;2026;51.002;13.668;2023-02-01T16:45:29;9.83;;;4.20;;
4023;SDS011;2026;51.002;13.668;2023-02-01T16:50:32;12.53;;;4.20;;
4023;SDS011;2026;51.002;13.668;2023-02-01T16:55:35;9.23;;;4.60;;
4023;SDS011;2026;51.002;13.668;2023-02-01T17:00:40;9.40;;;4.63;;
4023;SDS011;2026;51.002;13.668;2023-02-01T17:05:43;13.00;;;4.70;;
4023;SDS011;2026;51.002;13.668;2023-02-01T17:10:48;3.93;;;2.57;;
4023;SDS011;2026;51.002;13.668;2023-02-01T17:15:53;3.37;;;1.90;;
4023;SDS011;2026;51.002;13.668;2023-02-01T17:20:59;6.73;;;2.40;;
4023;SDS011;2026;51.002;13.668;2023-02-01T17:26:04;2.53;;;1.80;;
4023;SDS011;2026;51.002;13.668;2023-02-01T17:31:09;2.80;;;1.83;;
4023;SDS011;2026;51.002;13.668;2023-02-01T17:36:15;1.63;;;1.37;;
4023;SDS011;2026;51.002;13.668;2023-02-01T17:41:19;3.20;;;1.43;;
4023;SDS011;2026;51.002;13.668;2023-02-01T17:46:24;4.00;;;1.60;;
4023;SDS011;2026;51.002;13.668;2023-02-01T17:51:27;3.63;;;1.50;;
4023;SDS011;2026;51.002;13.668;2023-02-01T17:56:32;5.30;;;1.60;;
4023;SDS011;2026;51.002;13.668;2023-02-01T18:01:36;2.93;;;1.60;;
4023;SDS011;2026;51.002;13.668;2023-02-01T18:06:41;2.33;;;1.07;;
4023;SDS011;2026;51.002;13.668;2023-02-01T18:11:44;2.27;;;1.30;;
4023;SDS011;2026;51.002;13.668;2023-02-01T18:16:50;4.53;;;1.37;;
4023;SDS011;2026;51.002;13.668;2023-02-01T18:21:53;2.70;;;1.47;;
4023;SDS011;2026;51.002;13.668;2023-02-01T18:26:58;3.80;;;1.53;;
4023;SDS011;2026;51.002;13.668;2023-02-01T18:32:02;3.37;;;1.77;;
4023;SDS011;2026;51.002;13.668;2023-02-01T18:37:06;4.13;;;2.57;;
4023;SDS011;2026;51.002;13.668;2023-02-01T18:42:08;3.73;;;1.83;;
4023;SDS011;2026;51.002;13.668;2023-02-01T18:47:13;3.63;;;1.50;;
4023;SDS011;2026;51.002;13.668;2023-02-01T18:52:16;2.80;;;1.30;;
4023;SDS011;2026;51.002;13.668;2023-02-01T18:57:19;5.70;;;2.37;;
4023;SDS011;2026;51.002;13.668;2023-02-01T19:02:24;8.70;;;1.70;;
4023;SDS011;2026;51.002;13.668;2023-02-01T19:07:28;4.30;;;1.40;;
4023;SDS011;2026;51.002;13.668;2023-02-01T19:12:31;3.60;;;1.40;;
4023;SDS011;2026;51.002;13.668;2023-02-01T19:17:37;6.67;;;3.43;;
4023;SDS011;2026;51.002;13.668;2023-02-01T19:22:41;3.70;;;1.47;;
4023;SDS011;2026;51.002;13.668;2023-02-01T19:27:44;7.37;;;3.40;;
4023;SDS011;2026;51.002;13.668;2023-02-01T19:32:49;4.20;;;1.40;;
4023;SDS011;2026;51.002;13.668;2023-02-01T19:37:53;1.60;;;1.50;;
4023;SDS011;2026;51.002;13.668;2023-02-01T19:42:56;2.50;;;1.97;;
4023;SDS011;2026;51.002;13.668;2023-02-01T19:48:00;4.80;;;1.47;;
4023;SDS011;2026;51.002;13.668;2023-02-01T19:53:06;4.30;;;1.30;;
4023;SDS011;2026;51.002;13.668;2023-02-01T19:58:09;2.90;;;1.87;;
4023;SDS011;2026;51.002;13.668;2023-02-01T20:03:13;4.73;;;1.87;;
4023;SDS011;2026;51.002;13.668;2023-02-01T20:08:16;2.13;;;1.40;;
4023;SDS011;2026;51.002;13.668;2023-02-01T20:13:19;6.20;;;1.83;;
4023;SDS011;2026;51.002;13.668;2023-02-01T20:18:23;2.90;;;1.70;;
4023;SDS011;2026;51.002;13.668;2023-02-01T20:23:26;6.33;;;1.60;;
4023;SDS011;2026;51.002;13.668;2023-02-01T20:28:30;3.57;;;1.67;;
4023;SDS011;2026;51.002;13.668;2023-02-01T20:33:35;3.13;;;1.60;;
4023;SDS011;2026;51.002;13.668;2023-02-01T20:38:38;5.27;;;2.23;;
4023;SDS011;2026;51.002;13.668;2023-02-01T20:43:41;5.30;;;1.77;;
4023;SDS011;2026;51.002;13.668;2023-02-01T20:48:46;3.23;;;2.23;;
4023;SDS011;2026;51.002;13.668;2023-02-01T20:53:50;4.90;;;1.30;;
4023;SDS011;2026;51.002;13.668;2023-02-01T20:58:55;1.50;;;1.20;;
4023;SDS011;2026;51.002;13.668;2023-02-01T21:04:04;2.70;;;1.40;;
4023;SDS011;2026;51.002;13.668;2023-02-01T21:09:07;2.10;;;1.57;;
4023;SDS011;2026;51.002;13.668;2023-02-01T21:14:10;4.27;;;2.07;;
4023;SDS011;2026;51.002;13.668;2023-02-01T21:19:15;5.63;;;1.80;;
4023;SDS011;2026;51.002;13.668;2023-02-01T21:24:19;5.60;;;1.97;;
4023;SDS011;2026;51.002;13.668;2023-02-01T21:29:22;5.67;;;2.10;;
4023;SDS011;2026;51.002;13.668;2023-02-01T21:34:27;5.80;;;2.60;;
4023;SDS011;2026;51.002;13.668;2023-02-01T21:39:29;5.00;;;2.07;;
4023;SDS011;2026;51.002;13.668;2023-02-01T21:44:33;3.90;;;2.00;;
4023;SDS011;2026;51.002;13.668;2023-02-01T21:49:37;6.80;;;2.67;;
4023;SDS011;2026;51.002;13.668;2023-02-01T21:54:40;6.10;;;3.10;;
4023;SDS011;2026;51.002;13.668;2023-02-01T21:59:43;4.57;;;2.57;;
4023;SDS011;2026;51.002;13.668;2023-02-01T22:04:47;3.83;;;2.40;;
4023;SDS011;2026;51.002;13.668;2023-02-01T22:09:50;5.10;;;2.70;;
4023;SDS011;2026;51.002;13.668;2023-02-01T22:14:53;4.47;;;2.70;;
4023;SDS011;2026;51.002;13.668;2023-02-01T22:19:58;7.27;;;2.63;;
4023;SDS011;2026;51.002;13.668;2023-02-01T22:25:01;6.43;;;3.00;;
4023;SDS011;2026;51.002;13.668;2023-02-01T22:30:05;4.50;;;2.80;;
4023;SDS011;2026;51.002;13.668;2023-02-01T22:35:10;13.37;;;3.03;;
4023;SDS011;2026;51.002;13.668;2023-02-01T22:40:13;6.37;;;3.33;;
4023;SDS011;2026;51.002;13.668;2023-02-01T22:45:16;8.70;;;3.13;;
4023;SDS011;2026;51.002;13.668;2023-02-01T22:50:20;8.57;;;3.40;;
4023;SDS011;2026;51.002;13.668;2023-02-01T22:55:23;8.93;;;2.73;;
4023;SDS011;2026;51.002;13.668;2023-02-01T23:00:26;7.07;;;3.07;;
4023;SDS011;2026;51.002;13.668;2023-02-01T23:05:31;4.70;;;2.30;;
4023;SDS011;2026;51.002;13.668;2023-02-01T23:10:34;8.50;;;2.60;;
4023;SDS011;2026;51.002;13.668;2023-02-01T23:15:37;9.47;;;1.70;;
4023;SDS011;2026;51.002;13.668;2023-02-01T23:20:42;5.20;;;2.50;;
4023;SDS011;2026;51.002;13.668;2023-02-01T23:25:48;3.83;;;2.53;;
4023;SDS011;2026;51.002;13.668;2023-02-01T23:30:51;9.43;;;2.30;;
4023;SDS011;2026;51.002;13.668;2023-02-01T23:35:56;8.50;;;2.37;;
4023;SDS011;2026;51.002;13.668;2023-02-01T23:41:01;7.00;;;2.47;;
4023;SDS011;2026;51.002;13.668;2023-02-01T23:46:05;6.00;;;2.53;;
4023;SDS011;2026;51.002;13.668;2023-02-01T23:51:10;10.07;;;2.57;;
4023;SDS011;2026;51.002;13.668;2023-02-01T23:56:17;8.13;;;2.20;;
